createdAt,value
2018-05-12T00:01:34.557Z,10.40
2018-05-12T00:04:02.133Z,10.40
2018-05-12T00:06:29.736Z,10.40
2018-05-12T00:08:58.052Z,10.30
2018-05-12T00:11:25.606Z,10.30
2018-05-12T00:13:53.168Z,10.40
2018-05-12T00:16:20.748Z,10.30
2018-05-12T00:18:48.300Z,10.20
2018-05-12T00:21:15.856Z,10.30
2018-05-12T00:23:43.405Z,10.30
2018-05-12T00:26:10.956Z,10.20
2018-05-12T00:28:38.536Z,10.30
2018-05-12T00:31:06.088Z,10.30
2018-05-12T00:33:33.937Z,10.20
2018-05-12T00:36:01.489Z,10.20
2018-05-12T00:38:29.056Z,10.20
2018-05-12T00:40:56.610Z,10.10
2018-05-12T00:43:24.180Z,10.10
2018-05-12T00:45:51.756Z,10.10
2018-05-12T00:48:19.304Z,10.10
2018-05-12T00:50:46.860Z,10.10
2018-05-12T00:53:14.420Z,10.10
2018-05-12T00:55:41.969Z,10.00
2018-05-12T00:58:09.553Z,10.00
2018-05-12T01:00:37.105Z,10.10
2018-05-12T01:03:05.500Z,10.10
2018-05-12T01:05:33.051Z,10.20
2018-05-12T01:08:00.604Z,10.10
2018-05-12T01:10:28.164Z,10.10
2018-05-12T01:12:55.720Z,10.10
2018-05-12T01:15:23.272Z,10.10
2018-05-12T01:17:50.820Z,10.10
2018-05-12T01:20:18.376Z,10.10
2018-05-12T01:22:45.960Z,10.10
2018-05-12T01:25:13.540Z,10.10
2018-05-12T01:27:41.856Z,10.10
2018-05-12T01:30:09.405Z,10.10
2018-05-12T01:32:36.963Z,10.00
2018-05-12T01:35:04.517Z,10.00
2018-05-12T01:37:32.084Z,9.90
2018-05-12T01:39:59.637Z,9.90
2018-05-12T01:42:27.190Z,10.00
2018-05-12T01:44:54.742Z,10.00
2018-05-12T01:47:22.288Z,9.90
2018-05-12T01:49:49.856Z,9.90
2018-05-12T01:52:17.400Z,9.90
2018-05-12T01:54:45.716Z,9.80
2018-05-12T01:57:13.261Z,9.90
2018-05-12T01:59:40.816Z,9.90
2018-05-12T02:02:08.396Z,9.80
2018-05-12T02:04:35.945Z,9.80
2018-05-12T02:07:03.493Z,9.80
2018-05-12T02:09:31.043Z,9.80
2018-05-12T02:11:58.800Z,9.80
2018-05-12T02:14:26.374Z,9.70
2018-05-12T02:16:53.929Z,9.70
2018-05-12T02:19:21.476Z,9.70
2018-05-12T02:21:49.020Z,9.70
2018-05-12T02:24:16.576Z,9.60
2018-05-12T02:26:44.157Z,9.70
2018-05-12T02:29:11.704Z,9.70
2018-05-12T02:31:39.252Z,9.70
2018-05-12T02:34:06.797Z,9.70
2018-05-12T02:36:34.344Z,9.60
2018-05-12T02:39:02.689Z,9.60
2018-05-12T02:41:30.237Z,9.60
2018-05-12T02:43:57.780Z,9.50
2018-05-12T02:46:25.334Z,9.50
2018-05-12T02:48:52.901Z,9.50
2018-05-12T02:51:20.473Z,9.60
2018-05-12T02:53:48.018Z,9.60
2018-05-12T02:56:15.570Z,9.70
2018-05-12T02:58:43.128Z,9.70
2018-05-12T03:01:10.681Z,9.70
2018-05-12T03:03:38.255Z,9.80
2018-05-12T03:06:05.808Z,9.70
2018-05-12T03:08:33.362Z,9.60
2018-05-12T03:11:00.913Z,9.70
2018-05-12T03:13:28.466Z,9.70
2018-05-12T03:15:56.044Z,9.60
2018-05-12T03:18:23.600Z,9.60
2018-05-12T03:20:51.152Z,9.60
2018-05-12T03:23:18.696Z,9.60
2018-05-12T03:25:46.248Z,9.50
2018-05-12T03:28:13.823Z,9.50
2018-05-12T03:30:41.368Z,9.50
2018-05-12T03:33:08.992Z,9.60
2018-05-12T03:35:36.524Z,9.70
2018-05-12T03:38:04.073Z,9.80
2018-05-12T03:40:31.655Z,9.90
2018-05-12T03:42:59.208Z,10.00
2018-05-12T03:45:26.760Z,10.00
2018-05-12T03:47:55.105Z,10.40
2018-05-12T03:50:22.674Z,10.30
2018-05-12T03:52:50.268Z,10.40
2018-05-12T03:55:18.168Z,10.40
2018-05-12T03:57:45.722Z,10.40
2018-05-12T04:00:13.276Z,10.50
2018-05-12T04:02:40.828Z,10.70
2018-05-12T04:05:20.800Z,10.90
2018-05-12T04:08:11.840Z,10.90
2018-05-12T04:10:43.932Z,11.00
2018-05-12T04:13:11.494Z,11.10
2018-05-12T04:15:39.815Z,11.20
2018-05-12T04:18:07.565Z,11.20
2018-05-12T04:20:35.123Z,11.30
2018-05-12T04:23:02.694Z,11.30
2018-05-12T04:25:30.246Z,11.40
2018-05-12T04:27:57.800Z,11.50
2018-05-12T04:30:25.363Z,11.60
2018-05-12T04:32:52.912Z,11.70
2018-05-12T04:35:20.500Z,11.80
2018-05-12T04:37:48.050Z,11.90
2018-05-12T04:40:15.600Z,12.00
2018-05-12T04:42:43.155Z,12.20
2018-05-12T04:45:10.714Z,12.20
2018-05-12T04:47:38.304Z,12.30
2018-05-12T04:50:05.866Z,12.40
2018-05-12T04:52:33.436Z,12.50
2018-05-12T04:55:00.984Z,12.80
2018-05-12T04:57:28.539Z,12.90
2018-05-12T04:59:56.116Z,13.10
2018-05-12T05:02:23.675Z,13.10
2018-05-12T05:04:51.992Z,13.30
2018-05-12T05:07:19.544Z,13.30
2018-05-12T05:09:47.092Z,13.30
2018-05-12T05:12:14.673Z,13.50
2018-05-12T05:14:42.229Z,13.60
2018-05-12T05:17:09.792Z,13.70
2018-05-12T05:19:37.351Z,13.70
2018-05-12T05:22:04.904Z,13.70
2018-05-12T05:24:32.489Z,13.70
2018-05-12T05:27:00.040Z,13.80
2018-05-12T05:29:27.588Z,13.90
2018-05-12T05:31:55.140Z,14.10
2018-05-12T05:34:22.698Z,14.10
2018-05-12T05:36:50.275Z,14.30
2018-05-12T05:39:17.828Z,14.30
2018-05-12T05:41:45.420Z,14.40
2018-05-12T05:44:12.968Z,14.50
2018-05-12T05:46:40.520Z,14.70
2018-05-12T05:49:08.096Z,14.70
2018-05-12T05:51:36.414Z,14.90
2018-05-12T05:54:03.970Z,14.90
2018-05-12T05:56:31.524Z,15.10
2018-05-12T05:58:59.091Z,15.20
2018-05-12T06:01:26.675Z,15.30
2018-05-12T06:03:54.232Z,15.50
2018-05-12T06:06:21.783Z,15.90
2018-05-12T06:08:49.341Z,16.40
2018-05-12T06:11:16.901Z,16.60
2018-05-12T06:13:44.480Z,16.80
2018-05-12T06:16:12.028Z,17.50
2018-05-12T06:18:39.586Z,17.50
2018-05-12T06:21:07.140Z,17.90
2018-05-12T06:23:34.689Z,18.00
2018-05-12T06:26:02.274Z,18.30
2018-05-12T06:28:29.824Z,18.70
2018-05-12T06:30:57.376Z,18.70
2018-05-12T06:33:24.995Z,19.00
2018-05-12T06:35:52.532Z,19.10
2018-05-12T06:38:20.848Z,19.50
2018-05-12T06:40:48.395Z,19.50
2018-05-12T06:43:15.956Z,19.80
2018-05-12T06:45:43.512Z,19.90
2018-05-12T06:48:11.068Z,20.00
2018-05-12T06:50:38.626Z,20.20
2018-05-12T06:53:06.267Z,20.20
2018-05-12T06:55:33.816Z,20.20
2018-05-12T06:58:01.385Z,21.00
2018-05-12T07:00:29.010Z,21.20
2018-05-12T07:02:57.449Z,21.20
2018-05-12T07:05:25.045Z,21.10
2018-05-12T07:07:53.396Z,21.60
2018-05-12T07:10:20.944Z,21.60
2018-05-12T07:12:48.508Z,21.30
2018-05-12T07:15:16.056Z,21.50
2018-05-12T07:17:43.609Z,21.80
2018-05-12T07:20:11.180Z,21.80
2018-05-12T07:22:39.499Z,22.30
2018-05-12T07:25:07.820Z,21.90
2018-05-12T07:27:35.373Z,21.90
2018-05-12T07:30:02.952Z,21.30
2018-05-12T07:32:30.545Z,22.10
2018-05-12T07:34:58.865Z,22.70
2018-05-12T07:37:26.419Z,22.70
2018-05-12T07:39:54.085Z,22.50
2018-05-12T07:42:21.641Z,23.10
2018-05-12T07:44:49.220Z,22.50
2018-05-12T07:47:16.788Z,22.60
2018-05-12T07:49:44.340Z,22.80
2018-05-12T07:52:11.896Z,22.90
2018-05-12T07:54:39.452Z,22.80
2018-05-12T07:57:07.195Z,22.70
2018-05-12T07:59:34.750Z,22.50
2018-05-12T08:02:02.417Z,22.50
2018-05-12T08:04:29.972Z,22.10
2018-05-12T08:06:57.528Z,22.40
2018-05-12T08:09:25.104Z,22.70
2018-05-12T08:11:52.657Z,22.70
2018-05-12T08:14:20.980Z,23.20
2018-05-12T08:16:48.537Z,23.20
2018-05-12T08:19:16.088Z,23.30
2018-05-12T08:21:43.868Z,23.50
2018-05-12T08:24:11.420Z,23.60
2018-05-12T08:26:39.736Z,23.30
2018-05-12T08:29:07.380Z,23.30
2018-05-12T08:31:35.025Z,23.00
2018-05-12T08:34:02.542Z,23.50
2018-05-12T08:36:30.095Z,23.10
2018-05-12T08:38:57.651Z,23.40
2018-05-12T08:41:25.244Z,23.40
2018-05-12T08:43:52.796Z,23.40
2018-05-12T08:46:20.371Z,23.80
2018-05-12T08:48:48.692Z,24.30
2018-05-12T08:51:16.251Z,24.20
2018-05-12T08:53:43.849Z,24.20
2018-05-12T08:56:12.172Z,24.80
2018-05-12T08:58:39.756Z,24.70
2018-05-12T09:01:07.304Z,24.10
2018-05-12T09:03:34.856Z,24.70
2018-05-12T09:06:02.415Z,25.10
2018-05-12T09:08:29.987Z,25.30
2018-05-12T09:10:57.564Z,25.60
2018-05-12T09:13:25.135Z,25.60
2018-05-12T09:15:53.449Z,25.10
2018-05-12T09:18:21.017Z,25.00
2018-05-12T09:20:48.772Z,25.00
2018-05-12T09:25:53.036Z,25.30
2018-05-12T09:28:20.590Z,25.70
2018-05-12T09:30:48.172Z,26.00
2018-05-12T09:33:15.728Z,25.30
2018-05-12T09:35:43.281Z,24.90
2018-05-12T09:38:11.607Z,25.80
2018-05-12T09:40:39.176Z,25.80
2018-05-12T09:43:06.752Z,25.60
2018-05-12T09:45:34.309Z,25.40
2018-05-12T09:48:01.892Z,25.50
2018-05-12T09:50:30.216Z,25.30
2018-05-12T09:52:57.777Z,25.30
2018-05-12T09:55:26.108Z,26.00
2018-05-12T09:57:53.665Z,25.60
2018-05-12T10:00:25.027Z,25.60
2018-05-12T10:02:52.576Z,25.00
2018-05-12T10:05:20.133Z,25.00
2018-05-12T10:07:48.482Z,25.20
2018-05-12T10:10:16.032Z,25.20
2018-05-12T10:12:43.606Z,25.30
2018-05-12T10:15:11.192Z,24.90
2018-05-12T10:17:38.748Z,25.10
2018-05-12T10:20:06.328Z,25.30
2018-05-12T10:22:33.896Z,25.70
2018-05-12T10:25:01.449Z,25.80
2018-05-12T10:27:29.007Z,25.10
2018-05-12T10:29:56.565Z,25.20
2018-05-12T10:32:24.144Z,25.60
2018-05-12T10:34:51.712Z,26.00
2018-05-12T10:37:19.264Z,25.30
2018-05-12T10:39:46.812Z,24.80
2018-05-12T10:42:14.396Z,24.90
2018-05-12T10:44:41.982Z,24.70
2018-05-12T10:47:09.540Z,25.20
2018-05-12T10:49:37.092Z,26.10
2018-05-12T10:52:05.417Z,25.90
2018-05-12T10:54:33.061Z,25.90
2018-05-12T10:57:00.573Z,26.40
2018-05-12T10:59:28.128Z,26.70
2018-05-12T11:01:55.884Z,26.90
2018-05-12T11:04:23.407Z,26.60
2018-05-12T11:06:50.964Z,26.00
2018-05-12T11:09:18.585Z,25.80
2018-05-12T11:11:46.900Z,25.90
2018-05-12T11:14:14.455Z,25.90
2018-05-12T11:16:42.006Z,25.50
2018-05-12T11:19:09.560Z,25.60
2018-05-12T11:21:37.177Z,25.40
2018-05-12T11:24:04.733Z,25.40
2018-05-12T11:26:32.335Z,25.50
2018-05-12T11:28:59.873Z,25.60
2018-05-12T11:31:27.432Z,25.50
2018-05-12T11:33:55.032Z,25.40
2018-05-12T11:36:22.601Z,25.20
2018-05-12T11:38:51.048Z,24.90
2018-05-12T11:41:18.504Z,24.90
2018-05-12T11:43:46.061Z,25.50
2018-05-12T11:46:13.640Z,25.50
2018-05-12T11:48:41.199Z,25.30
2018-05-12T11:51:08.759Z,24.60
2018-05-12T11:53:36.308Z,24.70
2018-05-12T11:56:04.283Z,24.50
2018-05-12T11:58:32.238Z,24.80
2018-05-12T12:00:59.808Z,24.80
2018-05-12T12:03:27.358Z,24.90
2018-05-12T12:05:54.909Z,25.50
2018-05-12T12:08:23.517Z,25.30
2018-05-12T12:10:52.078Z,25.10
2018-05-12T12:13:19.636Z,25.10
2018-05-12T12:15:47.194Z,24.90
2018-05-12T12:18:14.772Z,25.00
2018-05-12T12:20:42.333Z,25.40
2018-05-12T12:23:09.885Z,25.50
2018-05-12T12:25:38.453Z,26.00
2018-05-12T12:28:06.011Z,26.00
2018-05-12T12:30:33.573Z,25.60
2018-05-12T12:33:01.126Z,25.40
2018-05-12T12:35:28.686Z,25.00
2018-05-12T12:37:56.240Z,24.80
2018-05-12T12:40:23.793Z,24.50
2018-05-12T12:42:51.349Z,24.80
2018-05-12T12:45:18.928Z,25.00
2018-05-12T12:47:46.491Z,25.00
2018-05-12T12:50:14.048Z,25.00
2018-05-12T12:52:41.608Z,24.90
2018-05-12T12:55:09.163Z,24.50
2018-05-12T12:57:36.740Z,24.90
2018-05-12T13:00:04.288Z,25.00
2018-05-12T13:02:31.838Z,24.70
2018-05-12T13:05:00.160Z,24.60
2018-05-12T13:07:27.718Z,24.50
2018-05-12T13:09:55.289Z,24.40
2018-05-12T13:12:22.840Z,24.40
2018-05-12T13:14:50.409Z,24.50
2018-05-12T13:17:17.965Z,24.40
2018-05-12T13:19:45.532Z,24.40
2018-05-12T13:22:13.148Z,24.40
2018-05-12T13:24:40.692Z,24.30
2018-05-12T13:27:08.246Z,24.50
2018-05-12T13:29:37.313Z,24.20
2018-05-12T13:32:04.884Z,24.20
2018-05-12T13:34:32.467Z,24.00
2018-05-12T13:37:00.020Z,23.70
2018-05-12T13:39:27.578Z,23.70
2018-05-12T13:41:55.145Z,23.80
2018-05-12T13:44:22.697Z,23.80
2018-05-12T13:46:50.284Z,23.80
2018-05-12T13:49:17.837Z,23.70
2018-05-12T13:51:45.396Z,23.50
2018-05-12T13:54:13.717Z,23.50
2018-05-12T13:56:41.268Z,23.50
2018-05-12T13:59:08.860Z,23.50
2018-05-12T14:01:36.416Z,23.50
2018-05-12T14:04:03.972Z,23.50
2018-05-12T14:06:31.562Z,23.20
2018-05-12T14:08:59.881Z,23.20
2018-05-12T14:11:27.456Z,23.20
2018-05-12T14:13:55.009Z,23.30
2018-05-12T14:16:22.564Z,22.80
2018-05-12T14:18:50.897Z,22.80
2018-05-12T14:23:42.200Z,22.70
2018-05-12T14:26:09.792Z,22.70
2018-05-12T14:28:37.367Z,22.70
2018-05-12T14:31:04.916Z,22.50
2018-05-12T14:33:32.467Z,22.40
2018-05-12T14:36:00.044Z,22.20
2018-05-12T14:38:27.608Z,22.10
2018-05-12T14:40:55.936Z,22.00
2018-05-12T14:43:24.257Z,21.90
2018-05-12T14:45:51.810Z,21.90
2018-05-12T14:48:19.384Z,22.10
2018-05-12T14:50:46.937Z,22.40
2018-05-12T14:53:14.489Z,22.20
2018-05-12T14:55:42.045Z,22.00
2018-05-12T14:58:09.600Z,22.00
2018-05-12T15:00:37.178Z,21.90
2018-05-12T15:03:04.728Z,21.80
2018-05-12T15:05:32.282Z,21.70
2018-05-12T15:07:59.832Z,21.60
2018-05-12T15:10:27.397Z,21.60
2018-05-12T15:12:54.985Z,21.70
2018-05-12T15:15:22.540Z,21.60
2018-05-12T15:17:50.091Z,21.50
2018-05-12T15:20:17.651Z,21.60
2018-05-12T15:22:45.200Z,21.50
2018-05-12T15:25:12.772Z,21.70
2018-05-12T15:27:40.324Z,21.50
2018-05-12T15:30:07.872Z,21.60
2018-05-12T15:32:35.428Z,21.60
2018-05-12T15:35:02.983Z,21.40
2018-05-12T15:37:30.560Z,21.50
2018-05-12T15:39:58.116Z,21.50
2018-05-12T15:42:27.185Z,21.30
2018-05-12T15:44:54.739Z,21.30
2018-05-12T15:47:22.298Z,21.40
2018-05-12T15:49:50.640Z,21.60
2018-05-12T15:52:18.206Z,21.60
2018-05-12T15:54:45.756Z,21.70
2018-05-12T15:57:14.081Z,21.20
2018-05-12T15:59:41.656Z,21.20
2018-05-12T16:02:09.208Z,21.40
2018-05-12T16:04:36.756Z,21.40
2018-05-12T16:07:04.312Z,21.40
2018-05-12T16:09:31.866Z,21.50
2018-05-12T16:11:59.436Z,21.40
2018-05-12T16:14:26.986Z,21.50
2018-05-12T16:16:54.560Z,21.30
2018-05-12T16:19:22.112Z,21.10
2018-05-12T16:21:49.668Z,21.00
2018-05-12T16:24:17.248Z,21.00
2018-05-12T16:26:44.813Z,20.80
2018-05-12T16:29:12.377Z,20.70
2018-05-12T16:31:40.816Z,20.50
2018-05-12T16:34:08.274Z,20.40
2018-05-12T16:36:35.854Z,20.40
2018-05-12T16:39:03.408Z,20.50
2018-05-12T16:41:30.955Z,20.40
2018-05-12T16:43:58.507Z,20.40
2018-05-12T16:46:26.056Z,20.50
2018-05-12T16:48:53.636Z,20.10
2018-05-12T16:51:21.187Z,20.00
2018-05-12T16:53:48.745Z,19.90
2018-05-12T16:56:16.296Z,19.80
2018-05-12T16:58:43.848Z,19.80
2018-05-12T17:01:11.428Z,19.60
2018-05-12T17:03:38.984Z,19.60
2018-05-12T17:06:06.668Z,19.60
2018-05-12T17:08:34.244Z,19.50
2018-05-12T17:11:01.804Z,19.60
2018-05-12T17:13:29.390Z,19.40
2018-05-12T17:15:56.944Z,19.30
2018-05-12T17:18:24.504Z,19.20
2018-05-12T17:20:52.074Z,19.00
2018-05-12T17:23:19.688Z,19.10
2018-05-12T17:25:47.250Z,18.90
2018-05-12T17:28:14.804Z,18.80
2018-05-12T17:30:42.360Z,18.70
2018-05-12T17:33:09.915Z,18.80
2018-05-12T17:35:37.474Z,18.80
2018-05-12T17:38:05.202Z,18.60
2018-05-12T17:40:32.758Z,18.70
2018-05-12T17:43:00.341Z,18.60
2018-05-12T17:45:27.896Z,18.60
2018-05-12T17:47:56.224Z,18.20
2018-05-12T17:50:23.776Z,18.10
2018-05-12T17:52:51.329Z,18.10
2018-05-12T17:55:18.909Z,18.10
2018-05-12T17:57:46.464Z,18.10
2018-05-12T18:00:14.018Z,18.20
2018-05-12T18:02:41.564Z,17.90
2018-05-12T18:05:09.112Z,18.00
2018-05-12T18:07:36.695Z,17.80
2018-05-12T18:10:04.248Z,17.80
2018-05-12T18:12:31.808Z,17.50
2018-05-12T18:14:59.360Z,17.40
2018-05-12T18:17:26.957Z,17.40
2018-05-12T18:19:54.627Z,17.10
2018-05-12T18:22:22.212Z,17.10
2018-05-12T18:24:49.884Z,17.00
2018-05-12T18:27:17.433Z,16.90
2018-05-12T18:29:44.999Z,16.90
2018-05-12T18:32:12.572Z,16.80
2018-05-12T18:34:40.143Z,16.70
2018-05-12T18:37:07.700Z,16.50
2018-05-12T18:39:35.253Z,16.50
2018-05-12T18:42:02.849Z,16.60
2018-05-12T18:44:30.424Z,16.50
2018-05-12T18:46:57.971Z,16.50
2018-05-12T18:49:26.294Z,16.40
2018-05-12T18:51:53.857Z,16.30
2018-05-12T18:54:21.417Z,16.10
2018-05-12T18:56:48.997Z,15.90
2018-05-12T18:59:16.840Z,15.90
2018-05-12T19:01:44.395Z,15.90
2018-05-12T19:04:11.952Z,15.90
2018-05-12T19:06:39.508Z,15.80
2018-05-12T19:09:07.092Z,15.60
2018-05-12T19:11:34.640Z,15.40
2018-05-12T19:14:02.196Z,15.40
2018-05-12T19:16:29.752Z,15.30
2018-05-12T19:18:57.304Z,15.30
2018-05-12T19:21:24.881Z,15.30
2018-05-12T19:23:52.431Z,15.20
2018-05-12T19:26:19.993Z,15.10
2018-05-12T19:28:47.546Z,15.10
2018-05-12T19:31:15.110Z,15.00
2018-05-12T19:33:42.688Z,15.00
2018-05-12T19:36:10.240Z,14.80
2018-05-12T19:38:37.796Z,14.80
2018-05-12T19:41:05.349Z,14.70
2018-05-12T19:43:32.906Z,14.60
2018-05-12T19:46:00.487Z,14.40
2018-05-12T19:48:28.036Z,14.40
2018-05-12T19:50:55.585Z,14.30
2018-05-12T19:53:23.145Z,14.40
2018-05-12T19:55:50.700Z,14.20
2018-05-12T19:58:18.269Z,14.10
2018-05-12T20:00:45.828Z,13.90
2018-05-12T20:03:13.376Z,14.00
2018-05-12T20:05:40.924Z,13.80
2018-05-12T20:08:08.480Z,13.80
2018-05-12T20:10:36.056Z,13.80
2018-05-12T20:13:03.608Z,13.70
2018-05-12T20:15:31.161Z,13.60
2018-05-12T20:17:58.719Z,13.70
2018-05-12T20:20:26.276Z,13.60
2018-05-12T20:22:53.853Z,13.70
2018-05-12T20:25:22.180Z,13.60
2018-05-12T20:27:49.737Z,13.60
2018-05-12T20:30:17.289Z,13.50
2018-05-12T20:32:44.848Z,13.30
2018-05-12T20:35:12.424Z,13.40
2018-05-12T20:37:39.983Z,13.30
2018-05-12T20:40:07.544Z,13.10
2018-05-12T20:42:35.875Z,13.00
2018-05-12T20:45:03.439Z,13.00
2018-05-12T20:47:31.011Z,12.90
2018-05-12T20:49:58.564Z,12.70
2018-05-12T20:52:26.117Z,12.90
2018-05-12T20:54:53.669Z,12.70
2018-05-12T20:57:21.215Z,12.60
2018-05-12T20:59:49.553Z,12.50
2018-05-12T21:02:17.104Z,12.50
2018-05-12T21:04:44.668Z,12.50
2018-05-12T21:07:12.221Z,12.40
2018-05-12T21:09:39.780Z,12.40
2018-05-12T21:12:07.348Z,12.50
2018-05-12T21:14:34.905Z,12.40
2018-05-12T21:17:02.468Z,12.50
2018-05-12T21:19:30.041Z,12.40
2018-05-12T21:21:58.362Z,12.30
2018-05-12T21:24:25.912Z,12.30
2018-05-12T21:26:53.460Z,12.20
2018-05-12T21:29:21.030Z,12.10
2018-05-12T21:31:48.790Z,12.00
2018-05-12T21:34:16.548Z,12.00
2018-05-12T21:36:44.100Z,11.90
2018-05-12T21:39:11.659Z,11.90
2018-05-12T21:41:39.207Z,11.80
2018-05-12T21:44:06.784Z,11.70
2018-05-12T21:46:34.336Z,11.70
2018-05-12T21:49:01.886Z,11.70
2018-05-12T21:51:29.450Z,11.60
2018-05-12T21:53:57.010Z,11.50
2018-05-12T21:56:24.588Z,11.20
2018-05-12T21:58:52.159Z,11.10
2018-05-12T22:01:19.720Z,11.00
2018-05-12T22:03:47.267Z,11.10
2018-05-12T22:06:14.818Z,11.20
2018-05-12T22:08:42.392Z,11.30
2018-05-12T22:11:09.940Z,11.20
2018-05-12T22:13:37.496Z,11.20
2018-05-12T22:16:05.049Z,11.10
2018-05-12T22:18:32.684Z,11.00
2018-05-12T22:21:00.201Z,11.00
2018-05-12T22:23:27.756Z,11.00
2018-05-12T22:25:55.308Z,11.00
2018-05-12T22:28:22.857Z,11.00
2018-05-12T22:30:50.413Z,10.90
2018-05-12T22:33:17.984Z,10.80
2018-05-12T22:35:45.544Z,10.70
2018-05-12T22:38:13.099Z,10.60
2018-05-12T22:40:40.648Z,10.60
2018-05-12T22:43:08.467Z,10.60
2018-05-12T22:45:36.036Z,10.60
2018-05-12T22:48:03.589Z,10.50
2018-05-12T22:50:31.272Z,10.40
2018-05-12T22:52:58.852Z,10.40
2018-05-12T22:55:26.399Z,10.30
2018-05-12T22:57:53.961Z,10.30
2018-05-12T23:00:37.124Z,10.30
2018-05-12T23:03:04.676Z,10.20
2018-05-12T23:05:33.021Z,10.00
2018-05-12T23:08:00.576Z,10.00
2018-05-12T23:10:28.125Z,10.00
2018-05-12T23:12:56.446Z,10.00
2018-05-12T23:15:24.000Z,10.00
2018-05-12T23:17:51.576Z,10.00
2018-05-12T23:20:19.888Z,9.90
2018-05-12T23:22:47.443Z,9.90
2018-05-12T23:25:14.993Z,9.90
2018-05-12T23:27:42.542Z,9.80
2018-05-12T23:30:10.114Z,9.80
2018-05-12T23:32:37.668Z,9.80
2018-05-12T23:35:05.220Z,9.70
2018-05-12T23:37:32.772Z,9.70
2018-05-12T23:40:00.324Z,9.60
2018-05-12T23:42:27.946Z,9.60
2018-05-12T23:44:55.468Z,9.60
2018-05-12T23:47:23.020Z,9.60
2018-05-12T23:49:50.564Z,9.60
2018-05-12T23:52:18.123Z,9.50
2018-05-12T23:54:45.700Z,9.40
2018-05-12T23:57:13.251Z,9.40
2018-05-12T23:59:41.164Z,9.20
